sensor_id;sensor_type;location;lat;lon;timestamp;P1;durP1;ratioP1;P2;durP2;ratioP2
47796;SDS011;33558;50.922;14.068;2022-08-23T00:01:36;7.72;;;6.03;;
47796;SDS011;33558;50.922;14.068;2022-08-23T00:04:05;9.48;;;6.60;;
47796;SDS011;33558;50.922;14.068;2022-08-23T00:06:33;7.97;;;7.10;;
47796;SDS011;33558;50.922;14.068;2022-08-23T00:09:00;8.80;;;7.15;;
47796;SDS011;33558;50.922;14.068;2022-08-23T00:11:27;9.45;;;7.07;;
47796;SDS011;33558;50.922;14.068;2022-08-23T00:13:55;7.28;;;6.55;;
47796;SDS011;33558;50.922;14.068;2022-08-23T00:16:22;8.80;;;6.60;;
47796;SDS011;33558;50.922;14.068;2022-08-23T00:18:50;10.85;;;7.32;;
47796;SDS011;33558;50.922;14.068;2022-08-23T00:21:17;11.80;;;7.18;;
47796;SDS011;33558;50.922;14.068;2022-08-23T00:23:44;9.48;;;6.88;;
47796;SDS011;33558;50.922;14.068;2022-08-23T00:26:10;8.95;;;7.25;;
47796;SDS011;33558;50.922;14.068;2022-08-23T00:28:37;9.45;;;7.63;;
47796;SDS011;33558;50.922;14.068;2022-08-23T00:31:04;8.85;;;7.88;;
47796;SDS011;33558;50.922;14.068;2022-08-23T00:33:31;9.35;;;7.82;;
47796;SDS011;33558;50.922;14.068;2022-08-23T00:35:59;10.13;;;7.45;;
47796;SDS011;33558;50.922;14.068;2022-08-23T00:38:26;14.25;;;9.15;;
47796;SDS011;33558;50.922;14.068;2022-08-23T00:40:52;11.32;;;9.70;;
47796;SDS011;33558;50.922;14.068;2022-08-23T00:43:22;11.80;;;9.88;;
47796;SDS011;33558;50.922;14.068;2022-08-23T00:46:11;12.48;;;10.43;;
47796;SDS011;33558;50.922;14.068;2022-08-23T00:49:00;14.05;;;10.25;;
47796;SDS011;33558;50.922;14.068;2022-08-23T00:51:29;16.45;;;11.07;;
47796;SDS011;33558;50.922;14.068;2022-08-23T00:54:00;13.13;;;11.63;;
47796;SDS011;33558;50.922;14.068;2022-08-23T00:56:28;14.55;;;11.73;;
47796;SDS011;33558;50.922;14.068;2022-08-23T00:58:57;15.13;;;11.65;;
47796;SDS011;33558;50.922;14.068;2022-08-23T01:01:23;12.93;;;11.60;;
47796;SDS011;33558;50.922;14.068;2022-08-23T01:03:51;14.65;;;12.20;;
47796;SDS011;33558;50.922;14.068;2022-08-23T01:06:21;17.05;;;11.70;;
47796;SDS011;33558;50.922;14.068;2022-08-23T01:08:52;11.98;;;10.55;;
47796;SDS011;33558;50.922;14.068;2022-08-23T01:11:24;13.77;;;11.43;;
47796;SDS011;33558;50.922;14.068;2022-08-23T01:13:53;13.02;;;9.90;;
47796;SDS011;33558;50.922;14.068;2022-08-23T01:16:23;13.75;;;11.15;;
47796;SDS011;33558;50.922;14.068;2022-08-23T01:18:53;11.75;;;10.10;;
47796;SDS011;33558;50.922;14.068;2022-08-23T01:21:21;14.90;;;11.40;;
47796;SDS011;33558;50.922;14.068;2022-08-23T01:23:52;14.18;;;10.77;;
47796;SDS011;33558;50.922;14.068;2022-08-23T01:26:21;13.23;;;11.10;;
47796;SDS011;33558;50.922;14.068;2022-08-23T01:28:49;16.88;;;11.82;;
47796;SDS011;33558;50.922;14.068;2022-08-23T01:31:17;12.43;;;10.77;;
47796;SDS011;33558;50.922;14.068;2022-08-23T01:33:49;10.70;;;9.15;;
47796;SDS011;33558;50.922;14.068;2022-08-23T01:36:25;13.93;;;11.07;;
47796;SDS011;33558;50.922;14.068;2022-08-23T01:38:54;13.55;;;10.65;;
47796;SDS011;33558;50.922;14.068;2022-08-23T01:41:20;12.68;;;10.90;;
47796;SDS011;33558;50.922;14.068;2022-08-23T01:43:48;12.52;;;10.07;;
47796;SDS011;33558;50.922;14.068;2022-08-23T01:46:18;13.35;;;10.23;;
47796;SDS011;33558;50.922;14.068;2022-08-23T01:48:48;11.68;;;10.48;;
47796;SDS011;33558;50.922;14.068;2022-08-23T01:51:16;13.50;;;11.13;;
47796;SDS011;33558;50.922;14.068;2022-08-23T01:53:45;11.95;;;10.75;;
47796;SDS011;33558;50.922;14.068;2022-08-23T01:56:14;13.13;;;10.38;;
47796;SDS011;33558;50.922;14.068;2022-08-23T01:58:44;13.05;;;10.65;;
47796;SDS011;33558;50.922;14.068;2022-08-23T02:01:12;12.07;;;10.80;;
47796;SDS011;33558;50.922;14.068;2022-08-23T02:03:38;19.13;;;12.20;;
47796;SDS011;33558;50.922;14.068;2022-08-23T02:06:05;14.27;;;11.15;;
47796;SDS011;33558;50.922;14.068;2022-08-23T02:08:32;13.23;;;11.02;;
47796;SDS011;33558;50.922;14.068;2022-08-23T02:11:20;13.93;;;10.63;;
47796;SDS011;33558;50.922;14.068;2022-08-23T02:13:49;15.18;;;11.77;;
47796;SDS011;33558;50.922;14.068;2022-08-23T02:16:26;15.75;;;11.70;;
47796;SDS011;33558;50.922;14.068;2022-08-23T02:18:54;14.88;;;11.82;;
47796;SDS011;33558;50.922;14.068;2022-08-23T02:21:22;15.18;;;11.65;;
47796;SDS011;33558;50.922;14.068;2022-08-23T02:23:49;18.30;;;13.20;;
47796;SDS011;33558;50.922;14.068;2022-08-23T02:26:16;14.68;;;12.30;;
47796;SDS011;33558;50.922;14.068;2022-08-23T02:28:48;18.98;;;14.60;;
47796;SDS011;33558;50.922;14.068;2022-08-23T02:31:16;19.98;;;14.45;;
47796;SDS011;33558;50.922;14.068;2022-08-23T02:33:43;17.38;;;13.23;;
47796;SDS011;33558;50.922;14.068;2022-08-23T02:36:11;19.17;;;13.90;;
47796;SDS011;33558;50.922;14.068;2022-08-23T02:38:38;16.75;;;14.93;;
47796;SDS011;33558;50.922;14.068;2022-08-23T02:41:05;18.90;;;14.32;;
47796;SDS011;33558;50.922;14.068;2022-08-23T02:43:33;20.90;;;14.98;;
47796;SDS011;33558;50.922;14.068;2022-08-23T02:46:03;17.50;;;15.30;;
47796;SDS011;33558;50.922;14.068;2022-08-23T02:48:31;18.30;;;15.15;;
47796;SDS011;33558;50.922;14.068;2022-08-23T02:51:03;17.98;;;15.95;;
47796;SDS011;33558;50.922;14.068;2022-08-23T02:53:31;18.77;;;15.63;;
47796;SDS011;33558;50.922;14.068;2022-08-23T02:56:02;21.25;;;16.60;;
47796;SDS011;33558;50.922;14.068;2022-08-23T02:58:29;22.27;;;17.98;;
47796;SDS011;33558;50.922;14.068;2022-08-23T03:00:57;22.00;;;15.68;;
47796;SDS011;33558;50.922;14.068;2022-08-23T03:03:26;21.52;;;16.33;;
47796;SDS011;33558;50.922;14.068;2022-08-23T03:05:54;19.60;;;14.98;;
47796;SDS011;33558;50.922;14.068;2022-08-23T03:08:21;24.65;;;17.10;;
47796;SDS011;33558;50.922;14.068;2022-08-23T03:10:49;21.58;;;17.42;;
47796;SDS011;33558;50.922;14.068;2022-08-23T03:13:17;21.88;;;17.05;;
47796;SDS011;33558;50.922;14.068;2022-08-23T03:15:47;22.23;;;16.50;;
47796;SDS011;33558;50.922;14.068;2022-08-23T03:18:14;23.70;;;16.30;;
47796;SDS011;33558;50.922;14.068;2022-08-23T03:20:43;20.30;;;14.82;;
47796;SDS011;33558;50.922;14.068;2022-08-23T03:23:12;18.30;;;15.38;;
47796;SDS011;33558;50.922;14.068;2022-08-23T03:25:38;18.10;;;14.57;;
47796;SDS011;33558;50.922;14.068;2022-08-23T03:28:13;19.00;;;14.88;;
47796;SDS011;33558;50.922;14.068;2022-08-23T03:30:42;16.13;;;13.23;;
47796;SDS011;33558;50.922;14.068;2022-08-23T03:33:10;15.57;;;13.45;;
47796;SDS011;33558;50.922;14.068;2022-08-23T03:35:37;17.00;;;13.52;;
47796;SDS011;33558;50.922;14.068;2022-08-23T03:38:07;15.27;;;12.90;;
47796;SDS011;33558;50.922;14.068;2022-08-23T03:40:34;14.95;;;12.57;;
47796;SDS011;33558;50.922;14.068;2022-08-23T03:48:24;13.45;;;11.80;;
47796;SDS011;33558;50.922;14.068;2022-08-23T03:50:52;13.18;;;11.60;;
47796;SDS011;33558;50.922;14.068;2022-08-23T03:53:20;14.35;;;11.85;;
47796;SDS011;33558;50.922;14.068;2022-08-23T03:55:48;14.73;;;12.30;;
47796;SDS011;33558;50.922;14.068;2022-08-23T03:58:16;15.13;;;13.25;;
47796;SDS011;33558;50.922;14.068;2022-08-23T04:00:46;14.18;;;12.77;;
47796;SDS011;33558;50.922;14.068;2022-08-23T04:03:13;14.38;;;12.43;;
47796;SDS011;33558;50.922;14.068;2022-08-23T04:05:55;16.15;;;12.57;;
47796;SDS011;33558;50.922;14.068;2022-08-23T04:08:23;14.48;;;12.23;;
47796;SDS011;33558;50.922;14.068;2022-08-23T04:10:52;13.65;;;12.25;;
47796;SDS011;33558;50.922;14.068;2022-08-23T04:33:18;13.85;;;11.48;;
47796;SDS011;33558;50.922;14.068;2022-08-23T04:35:45;15.05;;;12.07;;
47796;SDS011;33558;50.922;14.068;2022-08-23T04:38:12;12.15;;;10.75;;
47796;SDS011;33558;50.922;14.068;2022-08-23T04:40:40;12.07;;;10.88;;
47796;SDS011;33558;50.922;14.068;2022-08-23T05:03:17;12.20;;;11.00;;
47796;SDS011;33558;50.922;14.068;2022-08-23T05:05:45;17.88;;;13.48;;
47796;SDS011;33558;50.922;14.068;2022-08-23T05:08:19;15.85;;;12.75;;
47796;SDS011;33558;50.922;14.068;2022-08-23T05:10:46;24.90;;;14.38;;
47796;SDS011;33558;50.922;14.068;2022-08-23T06:14:00;21.42;;;17.25;;
47796;SDS011;33558;50.922;14.068;2022-08-23T07:46:01;21.17;;;17.17;;
47796;SDS011;33558;50.922;14.068;2022-08-23T07:48:29;21.75;;;17.30;;
47796;SDS011;33558;50.922;14.068;2022-08-23T07:51:19;24.30;;;17.00;;
47796;SDS011;33558;50.922;14.068;2022-08-23T07:53:47;23.88;;;17.98;;
47796;SDS011;33558;50.922;14.068;2022-08-23T07:56:17;25.23;;;17.65;;
47796;SDS011;33558;50.922;14.068;2022-08-23T07:59:07;24.13;;;17.80;;
47796;SDS011;33558;50.922;14.068;2022-08-23T08:01:55;21.10;;;18.33;;
47796;SDS011;33558;50.922;14.068;2022-08-23T08:04:27;23.67;;;18.27;;
47796;SDS011;33558;50.922;14.068;2022-08-23T08:15:03;19.92;;;17.83;;
47796;SDS011;33558;50.922;14.068;2022-08-23T08:17:38;18.90;;;15.75;;
47796;SDS011;33558;50.922;14.068;2022-08-23T08:20:08;20.42;;;15.93;;
47796;SDS011;33558;50.922;14.068;2022-08-23T08:22:52;21.30;;;16.08;;
47796;SDS011;33558;50.922;14.068;2022-08-23T08:25:23;18.10;;;15.52;;
47796;SDS011;33558;50.922;14.068;2022-08-23T08:28:06;19.63;;;16.08;;
47796;SDS011;33558;50.922;14.068;2022-08-23T08:30:33;19.83;;;16.45;;
47796;SDS011;33558;50.922;14.068;2022-08-23T08:33:04;18.33;;;15.93;;
47796;SDS011;33558;50.922;14.068;2022-08-23T08:38:05;18.80;;;15.75;;
47796;SDS011;33558;50.922;14.068;2022-08-23T08:40:33;23.30;;;16.58;;
47796;SDS011;33558;50.922;14.068;2022-08-23T08:43:17;22.17;;;16.52;;
47796;SDS011;33558;50.922;14.068;2022-08-23T08:45:57;21.10;;;17.42;;
47796;SDS011;33558;50.922;14.068;2022-08-23T08:51:03;22.67;;;15.93;;
47796;SDS011;33558;50.922;14.068;2022-08-23T08:53:40;21.13;;;16.13;;
47796;SDS011;33558;50.922;14.068;2022-08-23T08:56:27;21.40;;;16.23;;
47796;SDS011;33558;50.922;14.068;2022-08-23T08:59:18;21.10;;;16.70;;
47796;SDS011;33558;50.922;14.068;2022-08-23T09:01:48;21.17;;;17.40;;
47796;SDS011;33558;50.922;14.068;2022-08-23T09:04:26;22.85;;;17.52;;
47796;SDS011;33558;50.922;14.068;2022-08-23T09:10:51;26.73;;;19.02;;
47796;SDS011;33558;50.922;14.068;2022-08-23T09:13:47;26.83;;;19.42;;
47796;SDS011;33558;50.922;14.068;2022-08-23T09:22:00;27.15;;;19.45;;
47796;SDS011;33558;50.922;14.068;2022-08-23T09:24:31;22.85;;;18.85;;
47796;SDS011;33558;50.922;14.068;2022-08-23T09:27:05;26.20;;;20.20;;
47796;SDS011;33558;50.922;14.068;2022-08-23T09:29:36;25.92;;;18.77;;
47796;SDS011;33558;50.922;14.068;2022-08-23T09:40:43;31.17;;;20.33;;
47796;SDS011;33558;50.922;14.068;2022-08-23T09:43:16;24.73;;;19.77;;
47796;SDS011;33558;50.922;14.068;2022-08-23T09:45:52;27.77;;;20.20;;
47796;SDS011;33558;50.922;14.068;2022-08-23T09:48:32;27.63;;;19.70;;
47796;SDS011;33558;50.922;14.068;2022-08-23T09:51:03;22.83;;;19.55;;
47796;SDS011;33558;50.922;14.068;2022-08-23T09:53:34;24.48;;;18.55;;
47796;SDS011;33558;50.922;14.068;2022-08-23T09:56:09;23.55;;;19.35;;
47796;SDS011;33558;50.922;14.068;2022-08-23T09:58:40;29.05;;;22.23;;
47796;SDS011;33558;50.922;14.068;2022-08-23T10:01:13;26.73;;;20.50;;
47796;SDS011;33558;50.922;14.068;2022-08-23T10:04:05;27.35;;;21.48;;
47796;SDS011;33558;50.922;14.068;2022-08-23T10:06:36;26.38;;;19.95;;
47796;SDS011;33558;50.922;14.068;2022-08-23T10:09:05;28.05;;;21.15;;
47796;SDS011;33558;50.922;14.068;2022-08-23T10:11:37;29.02;;;22.23;;
47796;SDS011;33558;50.922;14.068;2022-08-23T10:14:07;25.33;;;18.90;;
47796;SDS011;33558;50.922;14.068;2022-08-23T10:16:40;25.77;;;20.02;;
47796;SDS011;33558;50.922;14.068;2022-08-23T10:19:15;27.40;;;20.05;;
47796;SDS011;33558;50.922;14.068;2022-08-23T10:21:51;24.67;;;20.63;;
47796;SDS011;33558;50.922;14.068;2022-08-23T10:24:25;26.63;;;21.70;;
47796;SDS011;33558;50.922;14.068;2022-08-23T10:27:04;28.27;;;20.65;;
47796;SDS011;33558;50.922;14.068;2022-08-23T10:29:49;32.72;;;22.83;;
47796;SDS011;33558;50.922;14.068;2022-08-23T10:32:20;28.52;;;23.27;;
47796;SDS011;33558;50.922;14.068;2022-08-23T10:34:57;29.97;;;23.37;;
47796;SDS011;33558;50.922;14.068;2022-08-23T10:37:49;32.42;;;24.52;;
47796;SDS011;33558;50.922;14.068;2022-08-23T10:40:22;33.70;;;23.05;;
47796;SDS011;33558;50.922;14.068;2022-08-23T10:42:58;30.70;;;22.98;;
47796;SDS011;33558;50.922;14.068;2022-08-23T10:45:30;28.98;;;22.50;;
47796;SDS011;33558;50.922;14.068;2022-08-23T10:48:13;29.70;;;22.50;;
47796;SDS011;33558;50.922;14.068;2022-08-23T10:50:47;28.88;;;22.58;;
47796;SDS011;33558;50.922;14.068;2022-08-23T10:53:18;27.13;;;22.05;;
47796;SDS011;33558;50.922;14.068;2022-08-23T10:55:48;27.33;;;21.63;;
47796;SDS011;33558;50.922;14.068;2022-08-23T10:58:31;26.17;;;21.27;;
47796;SDS011;33558;50.922;14.068;2022-08-23T11:01:00;24.65;;;21.95;;
47796;SDS011;33558;50.922;14.068;2022-08-23T11:03:28;25.23;;;21.45;;
47796;SDS011;33558;50.922;14.068;2022-08-23T11:09:08;33.10;;;20.70;;
47796;SDS011;33558;50.922;14.068;2022-08-23T11:12:02;24.60;;;20.30;;
47796;SDS011;33558;50.922;14.068;2022-08-23T11:14:38;24.40;;;19.98;;
47796;SDS011;33558;50.922;14.068;2022-08-23T11:17:08;25.48;;;20.40;;
47796;SDS011;33558;50.922;14.068;2022-08-23T11:19:48;23.05;;;19.27;;
47796;SDS011;33558;50.922;14.068;2022-08-23T11:22:17;24.50;;;19.35;;
47796;SDS011;33558;50.922;14.068;2022-08-23T11:24:51;26.98;;;19.15;;
47796;SDS011;33558;50.922;14.068;2022-08-23T11:27:28;25.58;;;20.27;;
47796;SDS011;33558;50.922;14.068;2022-08-23T11:33:14;23.05;;;19.05;;
47796;SDS011;33558;50.922;14.068;2022-08-23T11:35:43;22.25;;;19.15;;
47796;SDS011;33558;50.922;14.068;2022-08-23T11:38:14;22.15;;;19.17;;
47796;SDS011;33558;50.922;14.068;2022-08-23T11:43:38;23.50;;;19.17;;
47796;SDS011;33558;50.922;14.068;2022-08-23T11:49:19;19.50;;;17.20;;
47796;SDS011;33558;50.922;14.068;2022-08-23T11:51:56;23.23;;;19.20;;
47796;SDS011;33558;50.922;14.068;2022-08-23T11:54:35;21.83;;;19.23;;
47796;SDS011;33558;50.922;14.068;2022-08-23T11:57:17;22.20;;;18.83;;
47796;SDS011;33558;50.922;14.068;2022-08-23T11:59:57;24.45;;;17.40;;
47796;SDS011;33558;50.922;14.068;2022-08-23T12:02:42;22.77;;;16.83;;
47796;SDS011;33558;50.922;14.068;2022-08-23T12:05:27;21.17;;;18.88;;
47796;SDS011;33558;50.922;14.068;2022-08-23T12:11:12;20.73;;;17.73;;
47796;SDS011;33558;50.922;14.068;2022-08-23T12:13:45;24.23;;;19.40;;
47796;SDS011;33558;50.922;14.068;2022-08-23T12:16:33;21.63;;;17.17;;
47796;SDS011;33558;50.922;14.068;2022-08-23T12:19:06;27.67;;;17.93;;
47796;SDS011;33558;50.922;14.068;2022-08-23T12:21:44;18.08;;;16.27;;
47796;SDS011;33558;50.922;14.068;2022-08-23T12:24:24;17.52;;;15.73;;
47796;SDS011;33558;50.922;14.068;2022-08-23T12:26:53;17.60;;;15.68;;
47796;SDS011;33558;50.922;14.068;2022-08-23T12:29:27;22.48;;;15.50;;
47796;SDS011;33558;50.922;14.068;2022-08-23T12:32:02;16.30;;;14.73;;
47796;SDS011;33558;50.922;14.068;2022-08-23T12:34:36;16.75;;;15.02;;
47796;SDS011;33558;50.922;14.068;2022-08-23T12:37:12;17.38;;;15.15;;
47796;SDS011;33558;50.922;14.068;2022-08-23T12:39:46;15.82;;;14.30;;
47796;SDS011;33558;50.922;14.068;2022-08-23T12:42:15;15.10;;;13.52;;
47796;SDS011;33558;50.922;14.068;2022-08-23T12:44:45;15.57;;;13.90;;
47796;SDS011;33558;50.922;14.068;2022-08-23T12:47:13;16.35;;;14.50;;
47796;SDS011;33558;50.922;14.068;2022-08-23T12:49:41;15.93;;;14.05;;
47796;SDS011;33558;50.922;14.068;2022-08-23T12:52:22;15.82;;;14.23;;
47796;SDS011;33558;50.922;14.068;2022-08-23T12:54:50;14.13;;;12.65;;
47796;SDS011;33558;50.922;14.068;2022-08-23T12:57:20;13.93;;;11.68;;
47796;SDS011;33558;50.922;14.068;2022-08-23T12:59:53;13.98;;;12.50;;
47796;SDS011;33558;50.922;14.068;2022-08-23T13:02:25;14.65;;;13.15;;
47796;SDS011;33558;50.922;14.068;2022-08-23T13:04:53;13.32;;;12.10;;
47796;SDS011;33558;50.922;14.068;2022-08-23T13:07:24;11.60;;;10.38;;
47796;SDS011;33558;50.922;14.068;2022-08-23T13:09:51;11.43;;;10.43;;
47796;SDS011;33558;50.922;14.068;2022-08-23T13:12:18;15.00;;;11.98;;
47796;SDS011;33558;50.922;14.068;2022-08-23T13:14:46;13.32;;;11.27;;
47796;SDS011;33558;50.922;14.068;2022-08-23T13:17:16;12.75;;;11.30;;
47796;SDS011;33558;50.922;14.068;2022-08-23T13:20:09;14.02;;;10.75;;
47796;SDS011;33558;50.922;14.068;2022-08-23T13:22:53;13.00;;;11.70;;
47796;SDS011;33558;50.922;14.068;2022-08-23T13:25:25;11.93;;;10.73;;
47796;SDS011;33558;50.922;14.068;2022-08-23T13:27:54;12.52;;;10.90;;
47796;SDS011;33558;50.922;14.068;2022-08-23T13:30:22;12.27;;;11.13;;
47796;SDS011;33558;50.922;14.068;2022-08-23T13:32:51;13.18;;;9.80;;
47796;SDS011;33558;50.922;14.068;2022-08-23T13:35:32;10.88;;;9.70;;
47796;SDS011;33558;50.922;14.068;2022-08-23T13:38:07;10.90;;;9.80;;
47796;SDS011;33558;50.922;14.068;2022-08-23T13:40:40;10.25;;;9.25;;
47796;SDS011;33558;50.922;14.068;2022-08-23T13:43:10;11.15;;;9.98;;
47796;SDS011;33558;50.922;14.068;2022-08-23T13:45:43;11.93;;;9.00;;
47796;SDS011;33558;50.922;14.068;2022-08-23T13:48:12;11.32;;;10.15;;
47796;SDS011;33558;50.922;14.068;2022-08-23T13:50:40;13.60;;;9.80;;
47796;SDS011;33558;50.922;14.068;2022-08-23T13:53:08;10.05;;;9.00;;
47796;SDS011;33558;50.922;14.068;2022-08-23T13:55:38;11.60;;;9.55;;
47796;SDS011;33558;50.922;14.068;2022-08-23T13:58:08;10.30;;;9.27;;
47796;SDS011;33558;50.922;14.068;2022-08-23T14:00:35;12.15;;;8.90;;
47796;SDS011;33558;50.922;14.068;2022-08-23T14:03:02;9.82;;;8.82;;
47796;SDS011;33558;50.922;14.068;2022-08-23T14:05:29;12.18;;;9.80;;
47796;SDS011;33558;50.922;14.068;2022-08-23T14:07:56;9.93;;;9.02;;
47796;SDS011;33558;50.922;14.068;2022-08-23T14:10:24;10.95;;;9.48;;
47796;SDS011;33558;50.922;14.068;2022-08-23T14:12:51;10.65;;;9.27;;
47796;SDS011;33558;50.922;14.068;2022-08-23T14:15:19;12.73;;;8.60;;
47796;SDS011;33558;50.922;14.068;2022-08-23T14:17:46;12.02;;;9.60;;
47796;SDS011;33558;50.922;14.068;2022-08-23T14:20:15;9.63;;;8.68;;
47796;SDS011;33558;50.922;14.068;2022-08-23T14:22:42;15.60;;;9.93;;
47796;SDS011;33558;50.922;14.068;2022-08-23T14:25:09;11.23;;;9.68;;
47796;SDS011;33558;50.922;14.068;2022-08-23T14:27:39;11.95;;;9.45;;
47796;SDS011;33558;50.922;14.068;2022-08-23T14:30:07;9.68;;;8.77;;
47796;SDS011;33558;50.922;14.068;2022-08-23T14:32:35;10.25;;;9.23;;
47796;SDS011;33558;50.922;14.068;2022-08-23T14:35:03;10.48;;;9.25;;
47796;SDS011;33558;50.922;14.068;2022-08-23T14:37:30;13.15;;;9.65;;
47796;SDS011;33558;50.922;14.068;2022-08-23T14:39:58;9.75;;;8.75;;
47796;SDS011;33558;50.922;14.068;2022-08-23T14:42:24;14.43;;;11.63;;
47796;SDS011;33558;50.922;14.068;2022-08-23T14:44:53;12.95;;;11.70;;
47796;SDS011;33558;50.922;14.068;2022-08-23T14:47:19;15.65;;;12.23;;
47796;SDS011;33558;50.922;14.068;2022-08-23T14:49:46;13.82;;;12.07;;
47796;SDS011;33558;50.922;14.068;2022-08-23T14:52:13;14.55;;;13.05;;
47796;SDS011;33558;50.922;14.068;2022-08-23T14:54:40;15.98;;;14.07;;
47796;SDS011;33558;50.922;14.068;2022-08-23T14:57:07;15.65;;;13.00;;
47796;SDS011;33558;50.922;14.068;2022-08-23T14:59:34;14.43;;;12.35;;
47796;SDS011;33558;50.922;14.068;2022-08-23T15:02:02;14.63;;;13.13;;
47796;SDS011;33558;50.922;14.068;2022-08-23T15:04:29;14.98;;;12.10;;
47796;SDS011;33558;50.922;14.068;2022-08-23T15:06:56;14.93;;;12.38;;
47796;SDS011;33558;50.922;14.068;2022-08-23T15:09:23;13.02;;;11.57;;
47796;SDS011;33558;50.922;14.068;2022-08-23T15:11:49;11.95;;;10.73;;
47796;SDS011;33558;50.922;14.068;2022-08-23T15:14:17;11.25;;;9.82;;
47796;SDS011;33558;50.922;14.068;2022-08-23T15:16:43;15.20;;;11.95;;
47796;SDS011;33558;50.922;14.068;2022-08-23T15:19:11;13.35;;;10.55;;
47796;SDS011;33558;50.922;14.068;2022-08-23T15:21:39;11.65;;;10.45;;
47796;SDS011;33558;50.922;14.068;2022-08-23T15:24:06;11.18;;;10.10;;
47796;SDS011;33558;50.922;14.068;2022-08-23T15:26:33;17.00;;;10.93;;
47796;SDS011;33558;50.922;14.068;2022-08-23T15:28:59;11.55;;;10.18;;
47796;SDS011;33558;50.922;14.068;2022-08-23T15:31:26;11.93;;;10.68;;
47796;SDS011;33558;50.922;14.068;2022-08-23T15:33:53;13.65;;;11.23;;
47796;SDS011;33558;50.922;14.068;2022-08-23T15:36:22;13.75;;;10.57;;
47796;SDS011;33558;50.922;14.068;2022-08-23T15:38:48;13.20;;;10.98;;
47796;SDS011;33558;50.922;14.068;2022-08-23T15:41:16;11.35;;;10.15;;
47796;SDS011;33558;50.922;14.068;2022-08-23T15:46:20;10.93;;;9.82;;
47796;SDS011;33558;50.922;14.068;2022-08-23T15:48:49;11.75;;;10.45;;
47796;SDS011;33558;50.922;14.068;2022-08-23T15:51:18;11.30;;;9.95;;
47796;SDS011;33558;50.922;14.068;2022-08-23T15:53:46;11.25;;;9.98;;
47796;SDS011;33558;50.922;14.068;2022-08-23T15:56:14;10.00;;;8.60;;
47796;SDS011;33558;50.922;14.068;2022-08-23T15:58:43;11.52;;;9.32;;
47796;SDS011;33558;50.922;14.068;2022-08-23T16:01:10;10.38;;;9.32;;
47796;SDS011;33558;50.922;14.068;2022-08-23T16:03:37;12.25;;;9.18;;
47796;SDS011;33558;50.922;14.068;2022-08-23T16:06:07;11.15;;;9.48;;
47796;SDS011;33558;50.922;14.068;2022-08-23T16:08:35;10.93;;;9.73;;
47796;SDS011;33558;50.922;14.068;2022-08-23T16:11:04;12.13;;;10.10;;
47796;SDS011;33558;50.922;14.068;2022-08-23T16:13:36;10.30;;;9.15;;
47796;SDS011;33558;50.922;14.068;2022-08-23T16:16:05;10.23;;;9.00;;
47796;SDS011;33558;50.922;14.068;2022-08-23T16:18:32;12.05;;;9.40;;
47796;SDS011;33558;50.922;14.068;2022-08-23T16:21:01;11.35;;;10.10;;
47796;SDS011;33558;50.922;14.068;2022-08-23T16:23:29;10.85;;;9.27;;
47796;SDS011;33558;50.922;14.068;2022-08-23T16:26:07;10.90;;;8.15;;
47796;SDS011;33558;50.922;14.068;2022-08-23T16:28:35;10.82;;;8.70;;
47796;SDS011;33558;50.922;14.068;2022-08-23T16:31:02;12.88;;;8.77;;
47796;SDS011;33558;50.922;14.068;2022-08-23T16:33:29;9.88;;;8.90;;
47796;SDS011;33558;50.922;14.068;2022-08-23T16:36:23;10.57;;;9.02;;
47796;SDS011;33558;50.922;14.068;2022-08-23T16:38:49;11.10;;;8.38;;
47796;SDS011;33558;50.922;14.068;2022-08-23T16:41:25;11.43;;;9.07;;
47796;SDS011;33558;50.922;14.068;2022-08-23T16:43:52;10.35;;;8.50;;
47796;SDS011;33558;50.922;14.068;2022-08-23T16:46:18;10.52;;;8.70;;
47796;SDS011;33558;50.922;14.068;2022-08-23T16:48:47;11.27;;;9.70;;
47796;SDS011;33558;50.922;14.068;2022-08-23T16:51:14;10.68;;;8.95;;
47796;SDS011;33558;50.922;14.068;2022-08-23T16:54:07;9.48;;;8.48;;
47796;SDS011;33558;50.922;14.068;2022-08-23T16:56:39;11.20;;;9.57;;
47796;SDS011;33558;50.922;14.068;2022-08-23T16:59:07;14.40;;;10.13;;
47796;SDS011;33558;50.922;14.068;2022-08-23T17:01:43;9.85;;;8.73;;
47796;SDS011;33558;50.922;14.068;2022-08-23T17:04:24;12.38;;;8.20;;
47796;SDS011;33558;50.922;14.068;2022-08-23T17:06:52;10.60;;;9.40;;
47796;SDS011;33558;50.922;14.068;2022-08-23T17:09:52;11.65;;;8.32;;
47796;SDS011;33558;50.922;14.068;2022-08-23T17:12:27;10.52;;;8.57;;
47796;SDS011;33558;50.922;14.068;2022-08-23T17:14:54;9.68;;;8.32;;
47796;SDS011;33558;50.922;14.068;2022-08-23T17:20:20;13.05;;;8.50;;
47796;SDS011;33558;50.922;14.068;2022-08-23T17:22:48;8.68;;;7.88;;
47796;SDS011;33558;50.922;14.068;2022-08-23T17:25:39;10.38;;;9.10;;
47796;SDS011;33558;50.922;14.068;2022-08-23T17:28:13;12.40;;;8.55;;
47796;SDS011;33558;50.922;14.068;2022-08-23T17:30:40;18.80;;;10.15;;
47796;SDS011;33558;50.922;14.068;2022-08-23T17:33:07;12.68;;;10.13;;
47796;SDS011;33558;50.922;14.068;2022-08-23T17:35:35;11.68;;;8.82;;
47796;SDS011;33558;50.922;14.068;2022-08-23T17:38:03;11.95;;;8.98;;
47796;SDS011;33558;50.922;14.068;2022-08-23T17:40:32;11.85;;;10.23;;
47796;SDS011;33558;50.922;14.068;2022-08-23T17:44:00;14.50;;;11.00;;
47796;SDS011;33558;50.922;14.068;2022-08-23T17:46:27;12.48;;;9.35;;
47796;SDS011;33558;50.922;14.068;2022-08-23T17:48:54;10.45;;;9.45;;
47796;SDS011;33558;50.922;14.068;2022-08-23T17:51:48;11.95;;;8.60;;
47796;SDS011;33558;50.922;14.068;2022-08-23T17:54:36;9.90;;;8.85;;
47796;SDS011;33558;50.922;14.068;2022-08-23T17:57:03;13.60;;;9.38;;
47796;SDS011;33558;50.922;14.068;2022-08-23T17:59:31;10.50;;;9.00;;
47796;SDS011;33558;50.922;14.068;2022-08-23T18:01:58;10.00;;;9.10;;
47796;SDS011;33558;50.922;14.068;2022-08-23T18:04:25;11.68;;;9.45;;
47796;SDS011;33558;50.922;14.068;2022-08-23T18:06:51;9.68;;;8.75;;
47796;SDS011;33558;50.922;14.068;2022-08-23T18:09:18;10.80;;;9.68;;
47796;SDS011;33558;50.922;14.068;2022-08-23T18:11:45;13.73;;;9.80;;
47796;SDS011;33558;50.922;14.068;2022-08-23T18:14:53;14.25;;;9.55;;
47796;SDS011;33558;50.922;14.068;2022-08-23T18:17:19;10.27;;;9.27;;
47796;SDS011;33558;50.922;14.068;2022-08-23T18:19:48;13.05;;;9.25;;
47796;SDS011;33558;50.922;14.068;2022-08-23T18:22:19;12.07;;;9.75;;
47796;SDS011;33558;50.922;14.068;2022-08-23T18:25:02;11.88;;;8.98;;
47796;SDS011;33558;50.922;14.068;2022-08-23T18:27:29;11.32;;;10.13;;
47796;SDS011;33558;50.922;14.068;2022-08-23T18:30:15;11.75;;;10.15;;
47796;SDS011;33558;50.922;14.068;2022-08-23T18:32:58;12.32;;;9.75;;
47796;SDS011;33558;50.922;14.068;2022-08-23T18:36:12;10.23;;;9.23;;
47796;SDS011;33558;50.922;14.068;2022-08-23T18:38:40;12.65;;;10.20;;
47796;SDS011;33558;50.922;14.068;2022-08-23T18:41:06;17.23;;;11.68;;
47796;SDS011;33558;50.922;14.068;2022-08-23T18:43:33;14.68;;;11.95;;
47796;SDS011;33558;50.922;14.068;2022-08-23T18:46:02;16.25;;;14.48;;
47796;SDS011;33558;50.922;14.068;2022-08-23T18:49:00;13.38;;;11.98;;